sensor_id;sensor_type;location;lat;lon;timestamp;P1;durP1;ratioP1;P2;durP2;ratioP2
10343;SDS011;5217;43.960;10.954;2023-11-21T00:00:11;7.72;;;3.28;;
10343;SDS011;5217;43.960;10.954;2023-11-21T00:02:40;5.60;;;2.92;;
10343;SDS011;5217;43.960;10.954;2023-11-21T00:05:10;8.40;;;3.23;;
10343;SDS011;5217;43.960;10.954;2023-11-21T00:07:40;6.70;;;2.77;;
10343;SDS011;5217;43.960;10.954;2023-11-21T00:10:09;7.30;;;3.20;;
10343;SDS011;5217;43.960;10.954;2023-11-21T00:12:39;8.03;;;3.17;;
10343;SDS011;5217;43.960;10.954;2023-11-21T00:15:09;5.72;;;2.55;;
10343;SDS011;5217;43.960;10.954;2023-11-21T00:17:38;5.17;;;3.10;;
10343;SDS011;5217;43.960;10.954;2023-11-21T00:20:07;5.40;;;2.93;;
10343;SDS011;5217;43.960;10.954;2023-11-21T00:22:39;3.97;;;2.60;;
10343;SDS011;5217;43.960;10.954;2023-11-21T00:25:08;5.47;;;3.30;;
10343;SDS011;5217;43.960;10.954;2023-11-21T00:27:37;5.73;;;3.00;;
10343;SDS011;5217;43.960;10.954;2023-11-21T00:30:07;6.60;;;3.40;;
10343;SDS011;5217;43.960;10.954;2023-11-21T00:32:37;8.23;;;3.33;;
10343;SDS011;5217;43.960;10.954;2023-11-21T00:35:06;5.87;;;3.27;;
10343;SDS011;5217;43.960;10.954;2023-11-21T00:37:35;3.87;;;2.63;;
10343;SDS011;5217;43.960;10.954;2023-11-21T00:40:06;7.03;;;3.10;;
10343;SDS011;5217;43.960;10.954;2023-11-21T00:42:36;4.60;;;2.77;;
10343;SDS011;5217;43.960;10.954;2023-11-21T00:45:07;7.27;;;3.50;;
10343;SDS011;5217;43.960;10.954;2023-11-21T00:47:36;8.17;;;3.30;;
10343;SDS011;5217;43.960;10.954;2023-11-21T00:50:05;9.13;;;3.30;;
10343;SDS011;5217;43.960;10.954;2023-11-21T00:52:34;5.07;;;3.00;;
10343;SDS011;5217;43.960;10.954;2023-11-21T00:55:03;8.50;;;3.10;;
10343;SDS011;5217;43.960;10.954;2023-11-21T00:57:34;8.00;;;3.30;;
10343;SDS011;5217;43.960;10.954;2023-11-21T01:00:03;4.60;;;2.57;;
10343;SDS011;5217;43.960;10.954;2023-11-21T01:02:37;9.63;;;3.30;;
10343;SDS011;5217;43.960;10.954;2023-11-21T01:05:06;4.80;;;2.87;;
10343;SDS011;5217;43.960;10.954;2023-11-21T01:07:35;6.77;;;2.97;;
10343;SDS011;5217;43.960;10.954;2023-11-21T01:10:04;6.20;;;3.00;;
10343;SDS011;5217;43.960;10.954;2023-11-21T01:12:34;7.23;;;3.17;;
10343;SDS011;5217;43.960;10.954;2023-11-21T01:15:03;5.67;;;2.80;;
10343;SDS011;5217;43.960;10.954;2023-11-21T01:17:35;6.63;;;3.07;;
10343;SDS011;5217;43.960;10.954;2023-11-21T01:20:05;6.90;;;3.17;;
10343;SDS011;5217;43.960;10.954;2023-11-21T01:22:39;7.90;;;3.20;;
10343;SDS011;5217;43.960;10.954;2023-11-21T01:25:08;8.67;;;3.80;;
10343;SDS011;5217;43.960;10.954;2023-11-21T01:27:37;4.73;;;3.53;;
10343;SDS011;5217;43.960;10.954;2023-11-21T01:30:07;5.67;;;3.17;;
10343;SDS011;5217;43.960;10.954;2023-11-21T01:32:37;5.67;;;3.00;;
10343;SDS011;5217;43.960;10.954;2023-11-21T01:35:06;4.73;;;2.80;;
10343;SDS011;5217;43.960;10.954;2023-11-21T01:37:36;6.27;;;2.80;;
10343;SDS011;5217;43.960;10.954;2023-11-21T01:40:06;6.37;;;3.00;;
10343;SDS011;5217;43.960;10.954;2023-11-21T01:42:41;6.23;;;3.17;;
10343;SDS011;5217;43.960;10.954;2023-11-21T01:45:13;9.97;;;3.37;;
10343;SDS011;5217;43.960;10.954;2023-11-21T01:47:42;7.30;;;3.37;;
10343;SDS011;5217;43.960;10.954;2023-11-21T01:50:13;8.03;;;3.13;;
10343;SDS011;5217;43.960;10.954;2023-11-21T01:52:45;7.73;;;3.40;;
10343;SDS011;5217;43.960;10.954;2023-11-21T01:55:14;5.53;;;2.97;;
10343;SDS011;5217;43.960;10.954;2023-11-21T01:57:54;6.37;;;3.10;;
10343;SDS011;5217;43.960;10.954;2023-11-21T02:00:25;6.40;;;3.23;;
10343;SDS011;5217;43.960;10.954;2023-11-21T02:02:56;5.73;;;3.20;;
10343;SDS011;5217;43.960;10.954;2023-11-21T02:05:24;6.47;;;2.90;;
10343;SDS011;5217;43.960;10.954;2023-11-21T02:07:53;7.20;;;3.10;;
10343;SDS011;5217;43.960;10.954;2023-11-21T02:10:23;6.40;;;3.00;;
10343;SDS011;5217;43.960;10.954;2023-11-21T02:12:52;7.17;;;3.20;;
10343;SDS011;5217;43.960;10.954;2023-11-21T02:15:22;6.53;;;3.30;;
10343;SDS011;5217;43.960;10.954;2023-11-21T02:17:55;7.70;;;3.17;;
10343;SDS011;5217;43.960;10.954;2023-11-21T02:20:25;8.60;;;3.88;;
10343;SDS011;5217;43.960;10.954;2023-11-21T02:22:57;5.20;;;3.30;;
10343;SDS011;5217;43.960;10.954;2023-11-21T02:25:28;6.00;;;3.43;;
10343;SDS011;5217;43.960;10.954;2023-11-21T02:27:59;6.87;;;3.50;;
10343;SDS011;5217;43.960;10.954;2023-11-21T02:30:29;6.20;;;3.47;;
10343;SDS011;5217;43.960;10.954;2023-11-21T02:32:59;7.80;;;3.83;;
10343;SDS011;5217;43.960;10.954;2023-11-21T02:35:28;7.83;;;4.00;;
10343;SDS011;5217;43.960;10.954;2023-11-21T02:37:59;7.83;;;3.47;;
10343;SDS011;5217;43.960;10.954;2023-11-21T02:40:28;7.50;;;3.23;;
10343;SDS011;5217;43.960;10.954;2023-11-21T02:42:57;7.57;;;3.60;;
10343;SDS011;5217;43.960;10.954;2023-11-21T02:45:26;8.30;;;3.20;;
10343;SDS011;5217;43.960;10.954;2023-11-21T02:47:54;5.47;;;3.17;;
10343;SDS011;5217;43.960;10.954;2023-11-21T02:50:25;4.97;;;2.97;;
10343;SDS011;5217;43.960;10.954;2023-11-21T02:52:54;7.07;;;3.20;;
10343;SDS011;5217;43.960;10.954;2023-11-21T02:55:25;8.00;;;3.50;;
10343;SDS011;5217;43.960;10.954;2023-11-21T02:57:54;6.43;;;3.30;;
10343;SDS011;5217;43.960;10.954;2023-11-21T03:00:24;5.50;;;3.30;;
10343;SDS011;5217;43.960;10.954;2023-11-21T03:02:54;6.83;;;3.07;;
10343;SDS011;5217;43.960;10.954;2023-11-21T03:05:23;7.53;;;3.13;;
10343;SDS011;5217;43.960;10.954;2023-11-21T03:07:52;7.57;;;3.20;;
10343;SDS011;5217;43.960;10.954;2023-11-21T03:10:20;7.27;;;3.20;;
10343;SDS011;5217;43.960;10.954;2023-11-21T03:12:51;4.70;;;2.80;;
10343;SDS011;5217;43.960;10.954;2023-11-21T03:15:19;5.30;;;2.73;;
10343;SDS011;5217;43.960;10.954;2023-11-21T03:17:47;9.17;;;3.03;;
10343;SDS011;5217;43.960;10.954;2023-11-21T03:20:17;7.27;;;3.50;;
10343;SDS011;5217;43.960;10.954;2023-11-21T03:22:45;4.67;;;2.80;;
10343;SDS011;5217;43.960;10.954;2023-11-21T03:25:14;4.47;;;3.10;;
10343;SDS011;5217;43.960;10.954;2023-11-21T03:27:44;5.70;;;3.03;;
10343;SDS011;5217;43.960;10.954;2023-11-21T03:30:14;4.57;;;2.63;;
10343;SDS011;5217;43.960;10.954;2023-11-21T03:32:43;4.30;;;2.87;;
10343;SDS011;5217;43.960;10.954;2023-11-21T03:35:12;6.93;;;3.10;;
10343;SDS011;5217;43.960;10.954;2023-11-21T03:37:41;6.13;;;3.00;;
10343;SDS011;5217;43.960;10.954;2023-11-21T03:40:10;5.93;;;3.40;;
10343;SDS011;5217;43.960;10.954;2023-11-21T03:42:39;6.30;;;3.10;;
10343;SDS011;5217;43.960;10.954;2023-11-21T03:45:08;5.10;;;2.53;;
10343;SDS011;5217;43.960;10.954;2023-11-21T03:47:40;6.90;;;2.90;;
10343;SDS011;5217;43.960;10.954;2023-11-21T03:50:09;8.20;;;2.80;;
10343;SDS011;5217;43.960;10.954;2023-11-21T03:52:38;6.73;;;3.00;;
10343;SDS011;5217;43.960;10.954;2023-11-21T03:55:07;5.50;;;3.13;;
10343;SDS011;5217;43.960;10.954;2023-11-21T03:57:37;5.60;;;3.13;;
10343;SDS011;5217;43.960;10.954;2023-11-21T04:00:06;4.63;;;2.60;;
10343;SDS011;5217;43.960;10.954;2023-11-21T04:02:36;5.63;;;2.80;;
10343;SDS011;5217;43.960;10.954;2023-11-21T04:05:07;5.60;;;3.10;;
10343;SDS011;5217;43.960;10.954;2023-11-21T04:07:36;4.17;;;2.50;;
10343;SDS011;5217;43.960;10.954;2023-11-21T04:10:06;4.10;;;2.70;;
10343;SDS011;5217;43.960;10.954;2023-11-21T04:12:36;6.80;;;2.77;;
10343;SDS011;5217;43.960;10.954;2023-11-21T04:15:05;7.07;;;2.80;;
10343;SDS011;5217;43.960;10.954;2023-11-21T04:17:35;5.03;;;2.90;;
10343;SDS011;5217;43.960;10.954;2023-11-21T04:20:04;5.57;;;3.23;;
10343;SDS011;5217;43.960;10.954;2023-11-21T04:22:40;6.07;;;3.03;;
10343;SDS011;5217;43.960;10.954;2023-11-21T04:25:11;5.93;;;2.87;;
10343;SDS011;5217;43.960;10.954;2023-11-21T04:27:41;6.83;;;2.73;;
10343;SDS011;5217;43.960;10.954;2023-11-21T04:30:12;5.13;;;2.97;;
10343;SDS011;5217;43.960;10.954;2023-11-21T04:32:41;7.30;;;3.20;;
10343;SDS011;5217;43.960;10.954;2023-11-21T04:35:10;3.87;;;2.40;;
10343;SDS011;5217;43.960;10.954;2023-11-21T04:37:40;8.20;;;2.87;;
10343;SDS011;5217;43.960;10.954;2023-11-21T04:40:09;4.87;;;2.60;;
10343;SDS011;5217;43.960;10.954;2023-11-21T04:42:38;6.37;;;2.70;;
10343;SDS011;5217;43.960;10.954;2023-11-21T04:45:07;6.80;;;2.70;;
10343;SDS011;5217;43.960;10.954;2023-11-21T04:47:39;6.10;;;2.77;;
10343;SDS011;5217;43.960;10.954;2023-11-21T04:50:08;5.83;;;2.70;;
10343;SDS011;5217;43.960;10.954;2023-11-21T04:52:37;4.67;;;2.90;;
10343;SDS011;5217;43.960;10.954;2023-11-21T04:55:07;4.20;;;2.33;;
10343;SDS011;5217;43.960;10.954;2023-11-21T04:57:37;4.57;;;2.50;;
10343;SDS011;5217;43.960;10.954;2023-11-21T05:00:08;5.50;;;3.60;;
10343;SDS011;5217;43.960;10.954;2023-11-21T05:02:38;6.07;;;3.13;;
10343;SDS011;5217;43.960;10.954;2023-11-21T05:05:08;5.27;;;3.17;;
10343;SDS011;5217;43.960;10.954;2023-11-21T05:07:38;5.43;;;3.10;;
10343;SDS011;5217;43.960;10.954;2023-11-21T05:10:09;8.10;;;5.23;;
10343;SDS011;5217;43.960;10.954;2023-11-21T05:12:39;8.83;;;5.57;;
10343;SDS011;5217;43.960;10.954;2023-11-21T05:15:09;7.87;;;5.20;;
10343;SDS011;5217;43.960;10.954;2023-11-21T05:17:41;7.90;;;5.47;;
10343;SDS011;5217;43.960;10.954;2023-11-21T05:20:11;7.83;;;5.60;;
10343;SDS011;5217;43.960;10.954;2023-11-21T05:22:40;8.00;;;6.30;;
10343;SDS011;5217;43.960;10.954;2023-11-21T05:25:11;9.27;;;6.50;;
10343;SDS011;5217;43.960;10.954;2023-11-21T05:27:39;8.40;;;5.60;;
10343;SDS011;5217;43.960;10.954;2023-11-21T05:30:08;7.13;;;5.63;;
10343;SDS011;5217;43.960;10.954;2023-11-21T05:32:38;6.93;;;5.40;;
10343;SDS011;5217;43.960;10.954;2023-11-21T05:35:09;7.77;;;4.70;;
10343;SDS011;5217;43.960;10.954;2023-11-21T05:37:44;8.47;;;5.30;;
10343;SDS011;5217;43.960;10.954;2023-11-21T05:40:15;9.27;;;5.23;;
10343;SDS011;5217;43.960;10.954;2023-11-21T05:42:44;7.30;;;5.50;;
10343;SDS011;5217;43.960;10.954;2023-11-21T05:45:13;5.40;;;4.23;;
10343;SDS011;5217;43.960;10.954;2023-11-21T05:47:42;6.07;;;3.90;;
10343;SDS011;5217;43.960;10.954;2023-11-21T05:50:13;8.83;;;4.43;;
10343;SDS011;5217;43.960;10.954;2023-11-21T05:52:43;6.43;;;3.90;;
10343;SDS011;5217;43.960;10.954;2023-11-21T05:55:15;5.07;;;3.80;;
10343;SDS011;5217;43.960;10.954;2023-11-21T05:57:44;6.10;;;3.70;;
10343;SDS011;5217;43.960;10.954;2023-11-21T06:00:13;5.80;;;3.50;;
10343;SDS011;5217;43.960;10.954;2023-11-21T06:02:47;5.00;;;3.80;;
10343;SDS011;5217;43.960;10.954;2023-11-21T06:05:17;6.03;;;3.97;;
10343;SDS011;5217;43.960;10.954;2023-11-21T06:07:46;4.37;;;3.37;;
10343;SDS011;5217;43.960;10.954;2023-11-21T06:10:16;5.33;;;3.07;;
10343;SDS011;5217;43.960;10.954;2023-11-21T06:12:46;5.57;;;3.47;;
10343;SDS011;5217;43.960;10.954;2023-11-21T06:15:15;4.20;;;3.20;;
10343;SDS011;5217;43.960;10.954;2023-11-21T06:17:45;6.67;;;3.50;;
10343;SDS011;5217;43.960;10.954;2023-11-21T06:20:20;5.40;;;3.27;;
10343;SDS011;5217;43.960;10.954;2023-11-21T06:22:49;9.27;;;3.30;;
10343;SDS011;5217;43.960;10.954;2023-11-21T06:25:20;7.40;;;3.30;;
10343;SDS011;5217;43.960;10.954;2023-11-21T06:27:49;5.30;;;3.23;;
10343;SDS011;5217;43.960;10.954;2023-11-21T06:30:20;6.90;;;3.27;;
10343;SDS011;5217;43.960;10.954;2023-11-21T06:32:50;5.37;;;3.50;;
10343;SDS011;5217;43.960;10.954;2023-11-21T06:35:19;6.53;;;3.17;;
10343;SDS011;5217;43.960;10.954;2023-11-21T06:37:48;5.30;;;3.10;;
10343;SDS011;5217;43.960;10.954;2023-11-21T06:40:18;5.63;;;3.40;;
10343;SDS011;5217;43.960;10.954;2023-11-21T06:42:48;5.20;;;3.10;;
10343;SDS011;5217;43.960;10.954;2023-11-21T06:45:18;5.17;;;3.20;;
10343;SDS011;5217;43.960;10.954;2023-11-21T06:47:48;4.23;;;3.00;;
10343;SDS011;5217;43.960;10.954;2023-11-21T06:50:17;4.77;;;3.00;;
10343;SDS011;5217;43.960;10.954;2023-11-21T06:52:45;7.50;;;4.20;;
10343;SDS011;5217;43.960;10.954;2023-11-21T06:55:15;6.10;;;4.10;;
10343;SDS011;5217;43.960;10.954;2023-11-21T06:57:45;9.05;;;5.22;;
10343;SDS011;5217;43.960;10.954;2023-11-21T07:00:15;8.30;;;6.00;;
10343;SDS011;5217;43.960;10.954;2023-11-21T07:02:45;9.20;;;5.97;;
10343;SDS011;5217;43.960;10.954;2023-11-21T07:05:14;8.63;;;6.63;;
10343;SDS011;5217;43.960;10.954;2023-11-21T07:07:47;10.80;;;6.80;;
10343;SDS011;5217;43.960;10.954;2023-11-21T07:10:16;7.83;;;6.13;;
10343;SDS011;5217;43.960;10.954;2023-11-21T07:12:46;7.70;;;5.70;;
10343;SDS011;5217;43.960;10.954;2023-11-21T07:15:15;9.60;;;6.23;;
10343;SDS011;5217;43.960;10.954;2023-11-21T07:17:43;9.93;;;6.63;;
10343;SDS011;5217;43.960;10.954;2023-11-21T07:20:13;10.23;;;6.40;;
10343;SDS011;5217;43.960;10.954;2023-11-21T07:22:44;7.03;;;5.87;;
10343;SDS011;5217;43.960;10.954;2023-11-21T07:25:12;10.10;;;6.40;;
10343;SDS011;5217;43.960;10.954;2023-11-21T07:27:41;9.27;;;6.10;;
10343;SDS011;5217;43.960;10.954;2023-11-21T07:30:12;8.07;;;6.47;;
10343;SDS011;5217;43.960;10.954;2023-11-21T07:32:40;8.50;;;6.18;;
10343;SDS011;5217;43.960;10.954;2023-11-21T07:35:09;11.10;;;6.43;;
10343;SDS011;5217;43.960;10.954;2023-11-21T07:37:38;8.23;;;5.43;;
10343;SDS011;5217;43.960;10.954;2023-11-21T07:40:07;6.22;;;5.15;;
10343;SDS011;5217;43.960;10.954;2023-11-21T07:42:38;7.70;;;5.90;;
10343;SDS011;5217;43.960;10.954;2023-11-21T07:45:06;8.20;;;5.53;;
10343;SDS011;5217;43.960;10.954;2023-11-21T07:47:37;7.17;;;5.30;;
10343;SDS011;5217;43.960;10.954;2023-11-21T07:50:07;9.17;;;5.47;;
10343;SDS011;5217;43.960;10.954;2023-11-21T07:52:37;7.65;;;4.63;;
10343;SDS011;5217;43.960;10.954;2023-11-21T07:55:05;7.30;;;4.10;;
10343;SDS011;5217;43.960;10.954;2023-11-21T07:57:35;7.33;;;4.30;;
10343;SDS011;5217;43.960;10.954;2023-11-21T08:00:04;7.20;;;5.17;;
10343;SDS011;5217;43.960;10.954;2023-11-21T08:02:37;7.10;;;4.87;;
10343;SDS011;5217;43.960;10.954;2023-11-21T08:05:06;9.27;;;5.70;;
10343;SDS011;5217;43.960;10.954;2023-11-21T08:07:44;8.20;;;5.37;;
10343;SDS011;5217;43.960;10.954;2023-11-21T08:10:12;10.67;;;6.83;;
10343;SDS011;5217;43.960;10.954;2023-11-21T08:12:41;10.45;;;8.50;;
10343;SDS011;5217;43.960;10.954;2023-11-21T08:15:09;8.47;;;6.90;;
10343;SDS011;5217;43.960;10.954;2023-11-21T08:17:39;8.45;;;6.07;;
10343;SDS011;5217;43.960;10.954;2023-11-21T08:20:09;8.82;;;5.70;;
10343;SDS011;5217;43.960;10.954;2023-11-21T08:22:38;8.50;;;5.50;;
10343;SDS011;5217;43.960;10.954;2023-11-21T08:25:08;7.70;;;5.93;;
10343;SDS011;5217;43.960;10.954;2023-11-21T08:27:37;8.98;;;6.00;;
10343;SDS011;5217;43.960;10.954;2023-11-21T08:30:06;7.80;;;5.78;;
10343;SDS011;5217;43.960;10.954;2023-11-21T08:32:35;7.17;;;5.33;;
10343;SDS011;5217;43.960;10.954;2023-11-21T08:35:05;5.40;;;4.88;;
10343;SDS011;5217;43.960;10.954;2023-11-21T08:37:35;8.38;;;5.43;;
10343;SDS011;5217;43.960;10.954;2023-11-21T08:40:06;7.25;;;5.30;;
10343;SDS011;5217;43.960;10.954;2023-11-21T08:42:36;7.95;;;5.53;;
10343;SDS011;5217;43.960;10.954;2023-11-21T08:45:04;7.20;;;4.97;;
10343;SDS011;5217;43.960;10.954;2023-11-21T08:47:35;7.78;;;5.07;;
10343;SDS011;5217;43.960;10.954;2023-11-21T08:50:06;12.13;;;6.25;;
10343;SDS011;5217;43.960;10.954;2023-11-21T08:52:35;10.13;;;6.38;;
10343;SDS011;5217;43.960;10.954;2023-11-21T08:55:04;8.98;;;6.50;;
10343;SDS011;5217;43.960;10.954;2023-11-21T08:57:34;7.60;;;6.22;;
10343;SDS011;5217;43.960;10.954;2023-11-21T09:00:03;7.68;;;5.85;;
10343;SDS011;5217;43.960;10.954;2023-11-21T09:02:34;7.18;;;5.75;;
10343;SDS011;5217;43.960;10.954;2023-11-21T09:05:04;6.10;;;5.47;;
10343;SDS011;5217;43.960;10.954;2023-11-21T09:07:35;6.07;;;5.20;;
10343;SDS011;5217;43.960;10.954;2023-11-21T09:10:04;8.20;;;4.90;;
10343;SDS011;5217;43.960;10.954;2023-11-21T09:12:34;6.93;;;4.70;;
10343;SDS011;5217;43.960;10.954;2023-11-21T09:15:04;5.68;;;4.20;;
10343;SDS011;5217;43.960;10.954;2023-11-21T09:17:34;6.38;;;3.40;;
10343;SDS011;5217;43.960;10.954;2023-11-21T09:20:04;5.20;;;2.92;;
10343;SDS011;5217;43.960;10.954;2023-11-21T09:22:37;6.90;;;4.10;;
10343;SDS011;5217;43.960;10.954;2023-11-21T09:25:06;10.27;;;4.78;;
10343;SDS011;5217;43.960;10.954;2023-11-21T09:27:36;7.53;;;4.63;;
10343;SDS011;5217;43.960;10.954;2023-11-21T09:30:05;8.85;;;5.07;;
10343;SDS011;5217;43.960;10.954;2023-11-21T09:32:37;6.85;;;4.60;;
10343;SDS011;5217;43.960;10.954;2023-11-21T09:35:09;6.80;;;4.60;;
10343;SDS011;5217;43.960;10.954;2023-11-21T09:37:38;4.85;;;4.18;;
10343;SDS011;5217;43.960;10.954;2023-11-21T09:40:07;7.10;;;4.30;;
10343;SDS011;5217;43.960;10.954;2023-11-21T09:42:43;6.03;;;4.40;;
10343;SDS011;5217;43.960;10.954;2023-11-21T09:45:18;5.47;;;4.10;;
10343;SDS011;5217;43.960;10.954;2023-11-21T09:47:52;5.63;;;3.95;;
10343;SDS011;5217;43.960;10.954;2023-11-21T09:50:23;7.10;;;3.83;;
10343;SDS011;5217;43.960;10.954;2023-11-21T09:52:55;7.13;;;3.80;;
10343;SDS011;5217;43.960;10.954;2023-11-21T09:55:27;6.57;;;3.65;;
10343;SDS011;5217;43.960;10.954;2023-11-21T09:57:58;6.95;;;3.50;;
10343;SDS011;5217;43.960;10.954;2023-11-21T10:00:27;6.30;;;3.83;;
10343;SDS011;5217;43.960;10.954;2023-11-21T10:02:58;5.97;;;4.00;;
10343;SDS011;5217;43.960;10.954;2023-11-21T10:05:28;7.50;;;4.00;;
10343;SDS011;5217;43.960;10.954;2023-11-21T10:08:01;8.55;;;4.03;;
10343;SDS011;5217;43.960;10.954;2023-11-21T10:10:30;7.28;;;3.40;;
10343;SDS011;5217;43.960;10.954;2023-11-21T10:13:01;7.25;;;4.22;;
10343;SDS011;5217;43.960;10.954;2023-11-21T10:15:33;9.98;;;4.43;;
10343;SDS011;5217;43.960;10.954;2023-11-21T10:18:03;8.57;;;3.83;;
10343;SDS011;5217;43.960;10.954;2023-11-21T10:20:34;6.88;;;3.53;;
10343;SDS011;5217;43.960;10.954;2023-11-21T10:23:04;9.13;;;3.83;;
10343;SDS011;5217;43.960;10.954;2023-11-21T10:25:34;7.97;;;4.10;;
10343;SDS011;5217;43.960;10.954;2023-11-21T10:28:03;10.27;;;4.55;;
10343;SDS011;5217;43.960;10.954;2023-11-21T10:30:33;8.18;;;4.30;;
10343;SDS011;5217;43.960;10.954;2023-11-21T10:33:04;9.23;;;3.70;;
10343;SDS011;5217;43.960;10.954;2023-11-21T10:35:39;7.05;;;2.85;;
10343;SDS011;5217;43.960;10.954;2023-11-21T10:38:17;8.02;;;3.40;;
10343;SDS011;5217;43.960;10.954;2023-11-21T10:40:47;4.70;;;2.65;;
10343;SDS011;5217;43.960;10.954;2023-11-21T10:43:17;9.57;;;5.45;;
10343;SDS011;5217;43.960;10.954;2023-11-21T10:45:46;7.70;;;5.07;;
10343;SDS011;5217;43.960;10.954;2023-11-21T10:48:14;8.25;;;3.58;;
10343;SDS011;5217;43.960;10.954;2023-11-21T10:50:46;6.75;;;2.92;;
10343;SDS011;5217;43.960;10.954;2023-11-21T10:53:15;7.80;;;3.58;;
10343;SDS011;5217;43.960;10.954;2023-11-21T10:55:44;6.63;;;3.30;;
10343;SDS011;5217;43.960;10.954;2023-11-21T10:58:13;7.22;;;2.95;;
10343;SDS011;5217;43.960;10.954;2023-11-21T11:00:43;6.72;;;3.78;;
10343;SDS011;5217;43.960;10.954;2023-11-21T11:03:12;6.07;;;3.72;;
10343;SDS011;5217;43.960;10.954;2023-11-21T11:05:43;8.13;;;4.03;;
10343;SDS011;5217;43.960;10.954;2023-11-21T11:08:20;7.25;;;4.82;;
10343;SDS011;5217;43.960;10.954;2023-11-21T11:10:54;7.20;;;5.30;;
10343;SDS011;5217;43.960;10.954;2023-11-21T11:13:25;10.27;;;6.13;;
10343;SDS011;5217;43.960;10.954;2023-11-21T11:15:56;9.10;;;5.72;;
10343;SDS011;5217;43.960;10.954;2023-11-21T11:18:28;9.65;;;5.55;;
10343;SDS011;5217;43.960;10.954;2023-11-21T11:21:00;11.30;;;6.32;;
10343;SDS011;5217;43.960;10.954;2023-11-21T11:23:43;11.43;;;6.22;;
10343;SDS011;5217;43.960;10.954;2023-11-21T11:26:25;9.10;;;5.65;;
10343;SDS011;5217;43.960;10.954;2023-11-21T11:29:01;7.22;;;5.78;;
10343;SDS011;5217;43.960;10.954;2023-11-21T11:31:37;9.43;;;6.35;;
10343;SDS011;5217;43.960;10.954;2023-11-21T11:34:17;10.93;;;7.13;;
10343;SDS011;5217;43.960;10.954;2023-11-21T11:36:54;12.88;;;7.85;;
10343;SDS011;5217;43.960;10.954;2023-11-21T11:39:29;8.02;;;6.18;;
10343;SDS011;5217;43.960;10.954;2023-11-21T11:41:58;7.50;;;5.00;;
10343;SDS011;5217;43.960;10.954;2023-11-21T11:44:46;8.50;;;4.50;;
10343;SDS011;5217;43.960;10.954;2023-11-21T11:47:22;5.43;;;4.25;;
10343;SDS011;5217;43.960;10.954;2023-11-21T11:50:01;6.15;;;4.07;;
10343;SDS011;5217;43.960;10.954;2023-11-21T11:52:35;7.60;;;4.57;;
10343;SDS011;5217;43.960;10.954;2023-11-21T11:55:07;10.00;;;5.60;;
10343;SDS011;5217;43.960;10.954;2023-11-21T11:57:37;10.05;;;6.88;;
10343;SDS011;5217;43.960;10.954;2023-11-21T12:00:08;10.30;;;7.50;;
10343;SDS011;5217;43.960;10.954;2023-11-21T12:02:44;10.40;;;8.20;;
10343;SDS011;5217;43.960;10.954;2023-11-21T12:05:14;11.07;;;7.45;;
10343;SDS011;5217;43.960;10.954;2023-11-21T12:07:47;11.10;;;7.97;;
10343;SDS011;5217;43.960;10.954;2023-11-21T12:10:19;10.18;;;7.80;;
10343;SDS011;5217;43.960;10.954;2023-11-21T12:12:52;9.73;;;8.00;;
10343;SDS011;5217;43.960;10.954;2023-11-21T12:15:22;10.45;;;8.15;;
10343;SDS011;5217;43.960;10.954;2023-11-21T12:17:51;10.05;;;8.40;;
10343;SDS011;5217;43.960;10.954;2023-11-21T12:20:21;8.55;;;6.50;;
10343;SDS011;5217;43.960;10.954;2023-11-21T12:22:52;5.35;;;4.85;;
10343;SDS011;5217;43.960;10.954;2023-11-21T12:25:21;5.95;;;4.20;;
10343;SDS011;5217;43.960;10.954;2023-11-21T12:27:51;3.97;;;3.63;;
10343;SDS011;5217;43.960;10.954;2023-11-21T12:30:21;5.38;;;3.40;;
10343;SDS011;5217;43.960;10.954;2023-11-21T12:32:51;4.10;;;3.67;;
10343;SDS011;5217;43.960;10.954;2023-11-21T12:35:21;3.63;;;3.33;;
10343;SDS011;5217;43.960;10.954;2023-11-21T12:37:52;3.70;;;3.40;;
10343;SDS011;5217;43.960;10.954;2023-11-21T12:40:22;4.10;;;3.63;;
10343;SDS011;5217;43.960;10.954;2023-11-21T12:42:51;5.07;;;3.50;;
10343;SDS011;5217;43.960;10.954;2023-11-21T12:45:20;4.57;;;3.50;;
10343;SDS011;5217;43.960;10.954;2023-11-21T12:47:54;4.35;;;3.13;;
10343;SDS011;5217;43.960;10.954;2023-11-21T12:50:26;2.80;;;2.60;;
10343;SDS011;5217;43.960;10.954;2023-11-21T12:53:00;2.95;;;2.67;;
10343;SDS011;5217;43.960;10.954;2023-11-21T12:55:32;2.65;;;2.45;;
10343;SDS011;5217;43.960;10.954;2023-11-21T12:58:04;2.88;;;2.67;;
10343;SDS011;5217;43.960;10.954;2023-11-21T13:00:36;2.80;;;2.50;;
10343;SDS011;5217;43.960;10.954;2023-11-21T13:03:10;4.03;;;3.20;;
10343;SDS011;5217;43.960;10.954;2023-11-21T13:05:44;4.13;;;3.60;;
10343;SDS011;5217;43.960;10.954;2023-11-21T13:08:20;6.63;;;5.93;;
10343;SDS011;5217;43.960;10.954;2023-11-21T13:10:50;5.57;;;5.07;;
10343;SDS011;5217;43.960;10.954;2023-11-21T13:13:21;5.53;;;4.97;;
10343;SDS011;5217;43.960;10.954;2023-11-21T13:15:51;4.60;;;4.13;;
10343;SDS011;5217;43.960;10.954;2023-11-21T13:18:22;4.20;;;3.80;;
10343;SDS011;5217;43.960;10.954;2023-11-21T13:20:53;3.13;;;2.85;;
10343;SDS011;5217;43.960;10.954;2023-11-21T13:23:24;3.20;;;2.90;;
10343;SDS011;5217;43.960;10.954;2023-11-21T13:25:53;6.13;;;5.63;;
10343;SDS011;5217;43.960;10.954;2023-11-21T13:28:32;10.20;;;9.20;;
10343;SDS011;5217;43.960;10.954;2023-11-21T13:31:01;10.82;;;9.75;;
10343;SDS011;5217;43.960;10.954;2023-11-21T13:33:37;8.68;;;7.88;;
10343;SDS011;5217;43.960;10.954;2023-11-21T13:36:08;6.60;;;6.00;;
10343;SDS011;5217;43.960;10.954;2023-11-21T13:38:39;5.88;;;5.38;;
10343;SDS011;5217;43.960;10.954;2023-11-21T13:41:10;8.63;;;6.40;;
10343;SDS011;5217;43.960;10.954;2023-11-21T13:43:41;6.85;;;6.10;;
10343;SDS011;5217;43.960;10.954;2023-11-21T13:46:14;4.95;;;4.47;;
10343;SDS011;5217;43.960;10.954;2023-11-21T13:48:49;5.05;;;4.55;;
10343;SDS011;5217;43.960;10.954;2023-11-21T13:51:22;4.40;;;4.00;;
10343;SDS011;5217;43.960;10.954;2023-11-21T13:54:02;3.53;;;3.22;;
10343;SDS011;5217;43.960;10.954;2023-11-21T13:56:36;4.25;;;3.55;;
10343;SDS011;5217;43.960;10.954;2023-11-21T13:59:06;3.25;;;2.90;;
10343;SDS011;5217;43.960;10.954;2023-11-21T14:01:45;3.10;;;2.85;;
10343;SDS011;5217;43.960;10.954;2023-11-21T14:04:23;2.92;;;2.47;;
10343;SDS011;5217;43.960;10.954;2023-11-21T14:07:23;2.45;;;2.25;;
10343;SDS011;5217;43.960;10.954;2023-11-21T14:10:04;2.42;;;2.22;;
10343;SDS011;5217;43.960;10.954;2023-11-21T14:12:34;2.90;;;2.70;;
10343;SDS011;5217;43.960;10.954;2023-11-21T14:15:06;3.33;;;3.08;;
10343;SDS011;5217;43.960;10.954;2023-11-21T14:17:36;3.58;;;3.28;;
10343;SDS011;5217;43.960;10.954;2023-11-21T14:20:08;3.50;;;3.20;;
10343;SDS011;5217;43.960;10.954;2023-11-21T14:22:43;3.60;;;3.30;;
10343;SDS011;5217;43.960;10.954;2023-11-21T14:25:13;3.83;;;3.53;;
10343;SDS011;5217;43.960;10.954;2023-11-21T14:27:44;5.70;;;5.20;;
10343;SDS011;5217;43.960;10.954;2023-11-21T14:30:13;5.78;;;5.28;;
10343;SDS011;5217;43.960;10.954;2023-11-21T14:32:44;4.63;;;4.22;;
10343;SDS011;5217;43.960;10.954;2023-11-21T14:35:13;4.82;;;4.43;;
10343;SDS011;5217;43.960;10.954;2023-11-21T14:37:42;6.45;;;5.95;;
10343;SDS011;5217;43.960;10.954;2023-11-21T14:40:13;6.43;;;5.88;;
10343;SDS011;5217;43.960;10.954;2023-11-21T14:42:42;6.65;;;6.05;;
10343;SDS011;5217;43.960;10.954;2023-11-21T14:45:14;9.70;;;8.80;;
10343;SDS011;5217;43.960;10.954;2023-11-21T14:47:46;10.20;;;9.30;;
10343;SDS011;5217;43.960;10.954;2023-11-21T14:50:23;8.07;;;7.22;;
10343;SDS011;5217;43.960;10.954;2023-11-21T14:53:10;7.82;;;7.13;;
10343;SDS011;5217;43.960;10.954;2023-11-21T14:55:41;7.75;;;7.05;;
10343;SDS011;5217;43.960;10.954;2023-11-21T14:58:23;7.63;;;6.82;;
10343;SDS011;5217;43.960;10.954;2023-11-21T15:00:53;8.10;;;7.30;;
10343;SDS011;5217;43.960;10.954;2023-11-21T15:03:24;10.50;;;8.52;;
10343;SDS011;5217;43.960;10.954;2023-11-21T15:06:16;8.38;;;7.30;;